createdAt,value
2018-07-24T00:00:03.955Z,94.30
2018-07-24T00:02:32.464Z,94.50
2018-07-24T00:05:00.887Z,94.60
2018-07-24T00:07:29.412Z,94.80
2018-07-24T00:09:57.925Z,95.00
2018-07-24T00:12:26.354Z,95.10
2018-07-24T00:14:54.801Z,95.30
2018-07-24T00:17:23.267Z,95.40
2018-07-24T00:19:51.797Z,95.50
2018-07-24T00:22:20.357Z,95.60
2018-07-24T00:24:48.977Z,95.60
2018-07-24T00:27:17.552Z,95.70
2018-07-24T00:29:45.996Z,96.10
2018-07-24T00:32:14.790Z,96.50
2018-07-24T00:34:43.184Z,96.80
2018-07-24T00:37:11.621Z,96.80
2018-07-24T00:39:40.086Z,96.70
2018-07-24T00:42:08.549Z,97.10
2018-07-24T00:44:37.450Z,96.90
2018-07-24T00:47:06.090Z,96.90
2018-07-24T00:49:35.269Z,96.90
2018-07-24T00:52:03.894Z,97.00
2018-07-24T00:54:32.382Z,97.00
2018-07-24T00:57:00.868Z,97.10
2018-07-24T00:59:29.286Z,97.20
2018-07-24T01:01:57.869Z,97.40
2018-07-24T01:04:26.285Z,97.50
2018-07-24T01:06:54.817Z,97.20
2018-07-24T01:09:23.349Z,97.20
2018-07-24T01:11:51.773Z,97.20
2018-07-24T01:14:20.254Z,97.30
2018-07-24T01:16:48.763Z,97.30
2018-07-24T01:19:17.313Z,97.40
2018-07-24T01:21:45.777Z,97.50
2018-07-24T01:24:14.365Z,97.50
2018-07-24T01:26:42.816Z,97.30
2018-07-24T01:29:11.361Z,97.20
2018-07-24T01:31:39.930Z,97.40
2018-07-24T01:34:08.484Z,96.90
2018-07-24T01:36:36.901Z,96.90
2018-07-24T01:39:10.341Z,97.10
2018-07-24T01:41:39.777Z,97.20
2018-07-24T01:44:08.425Z,97.20
2018-07-24T01:46:36.921Z,97.20
2018-07-24T01:49:05.480Z,97.30
2018-07-24T01:51:33.910Z,97.50
2018-07-24T01:54:02.384Z,97.40
2018-07-24T01:56:30.935Z,97.30
2018-07-24T01:58:59.485Z,97.20
2018-07-24T02:01:27.942Z,97.10
2018-07-24T02:03:56.380Z,97.20
2018-07-24T02:06:24.813Z,97.20
2018-07-24T02:08:53.384Z,97.30
2018-07-24T02:11:21.962Z,97.40
2018-07-24T02:13:50.566Z,97.40
2018-07-24T02:16:19.088Z,97.30
2018-07-24T02:18:47.782Z,97.20
2018-07-24T02:21:16.228Z,97.20
2018-07-24T02:23:44.690Z,97.30
2018-07-24T02:26:13.129Z,97.50
2018-07-24T02:28:41.620Z,97.50
2018-07-24T02:31:10.233Z,97.50
2018-07-24T02:33:38.697Z,97.30
2018-07-24T02:36:07.650Z,97.30
2018-07-24T02:38:36.204Z,97.30
2018-07-24T02:41:04.657Z,97.50
2018-07-24T02:43:33.109Z,97.90
2018-07-24T02:46:01.609Z,98.00
2018-07-24T02:48:30.110Z,98.00
2018-07-24T02:50:58.604Z,98.00
2018-07-24T02:53:27.077Z,98.20
2018-07-24T02:55:55.525Z,98.20
2018-07-24T02:58:24.030Z,98.00
2018-07-24T03:00:52.567Z,98.10
2018-07-24T03:03:21.021Z,98.50
2018-07-24T03:05:49.465Z,98.30
2018-07-24T03:08:17.977Z,98.40
2018-07-24T03:10:46.593Z,98.50
2018-07-24T03:13:15.006Z,98.50
2018-07-24T03:15:43.485Z,98.50
2018-07-24T03:18:12.473Z,98.40
2018-07-24T03:20:41.020Z,98.40
2018-07-24T03:23:09.688Z,98.40
2018-07-24T03:25:38.225Z,98.40
2018-07-24T03:28:06.769Z,98.50
2018-07-24T03:30:35.597Z,98.60
2018-07-24T03:33:04.093Z,98.70
2018-07-24T03:35:32.725Z,98.80
2018-07-24T03:38:01.326Z,98.90
2018-07-24T03:40:29.771Z,99.10
2018-07-24T03:42:58.246Z,99.40
2018-07-24T03:45:26.770Z,99.10
2018-07-24T03:47:55.834Z,98.90
2018-07-24T03:50:24.457Z,98.80
2018-07-24T03:52:52.920Z,98.80
2018-07-24T03:55:21.349Z,98.80
2018-07-24T03:57:49.797Z,98.80
2018-07-24T04:00:18.263Z,99.00
2018-07-24T04:02:46.729Z,99.20
2018-07-24T04:05:15.176Z,99.30
2018-07-24T04:07:43.757Z,99.30
2018-07-24T04:10:12.197Z,99.20
2018-07-24T04:12:40.618Z,99.20
2018-07-24T04:15:09.073Z,99.20
2018-07-24T04:17:37.537Z,99.00
2018-07-24T04:20:05.980Z,99.00
2018-07-24T04:22:34.446Z,99.00
2018-07-24T04:25:02.865Z,99.00
2018-07-24T04:27:31.270Z,99.00
2018-07-24T04:29:59.821Z,98.90
2018-07-24T04:32:28.232Z,98.90
2018-07-24T04:34:56.692Z,98.70
2018-07-24T04:37:25.413Z,98.90
2018-07-24T04:39:53.914Z,99.30
2018-07-24T04:42:22.405Z,99.40
2018-07-24T04:44:50.910Z,99.50
2018-07-24T04:49:47.461Z,99.50
2018-07-24T04:52:16.147Z,99.50
2018-07-24T04:57:12.896Z,99.50
2018-07-24T04:59:41.357Z,99.30
2018-07-24T05:02:09.881Z,99.40
2018-07-24T05:04:38.326Z,99.20
2018-07-24T05:07:06.949Z,99.20
2018-07-24T05:09:35.388Z,99.00
2018-07-24T05:12:03.886Z,99.00
2018-07-24T05:14:32.353Z,98.90
2018-07-24T05:17:00.781Z,98.80
2018-07-24T05:19:29.197Z,98.70
2018-07-24T05:21:57.689Z,98.30
2018-07-24T05:24:26.315Z,98.20
2018-07-24T05:29:23.318Z,98.10
2018-07-24T05:31:51.897Z,98.10
2018-07-24T05:34:20.440Z,98.10
2018-07-24T05:36:49.047Z,97.90
2018-07-24T05:41:45.886Z,97.60
2018-07-24T05:44:14.344Z,97.50
2018-07-24T05:46:42.898Z,97.30
2018-07-24T05:49:11.340Z,97.20
2018-07-24T05:51:39.806Z,97.00
2018-07-24T05:54:08.256Z,96.80
2018-07-24T05:56:36.666Z,96.70
2018-07-24T05:59:05.290Z,96.50
2018-07-24T06:01:33.960Z,96.20
2018-07-24T06:04:02.402Z,95.90
2018-07-24T06:06:30.864Z,95.80
2018-07-24T06:08:59.300Z,95.90
2018-07-24T06:11:27.837Z,95.50
2018-07-24T06:13:56.286Z,95.20
2018-07-24T06:16:24.752Z,94.90
2018-07-24T06:18:53.201Z,94.90
2018-07-24T06:21:21.754Z,94.50
2018-07-24T06:23:50.453Z,93.90
2018-07-24T06:26:19.017Z,93.60
2018-07-24T06:28:48.454Z,93.30
2018-07-24T06:31:17.107Z,93.00
2018-07-24T06:33:45.612Z,92.70
2018-07-24T06:36:14.090Z,92.50
2018-07-24T06:38:42.543Z,92.40
2018-07-24T06:41:11.018Z,91.90
2018-07-24T06:43:39.557Z,90.90
2018-07-24T06:46:08.118Z,90.40
2018-07-24T06:51:04.796Z,89.20
2018-07-24T06:53:33.253Z,88.70
2018-07-24T06:56:01.718Z,85.60
2018-07-24T06:58:30.380Z,84.60
2018-07-24T07:00:58.808Z,83.90
2018-07-24T07:03:27.276Z,83.20
2018-07-24T07:05:57.050Z,82.60
2018-07-24T07:08:25.477Z,82.20
2018-07-24T07:10:54.013Z,81.30
2018-07-24T07:13:22.564Z,79.80
2018-07-24T07:15:50.985Z,79.20
2018-07-24T07:18:19.458Z,78.70
2018-07-24T07:20:47.943Z,78.00
2018-07-24T07:23:16.485Z,76.90
2018-07-24T07:25:45.274Z,75.50
2018-07-24T07:28:14.050Z,74.80
2018-07-24T07:30:42.493Z,73.10
2018-07-24T07:33:10.966Z,72.80
2018-07-24T07:35:39.613Z,72.30
2018-07-24T07:38:08.214Z,71.10
2018-07-24T07:40:36.729Z,70.80
2018-07-24T07:43:05.235Z,70.60
2018-07-24T07:45:33.674Z,69.80
2018-07-24T07:48:02.113Z,69.10
2018-07-24T07:50:31.473Z,68.90
2018-07-24T07:52:59.929Z,68.30
2018-07-24T07:55:28.477Z,66.90
2018-07-24T07:57:57.234Z,66.60
2018-07-24T08:00:25.864Z,66.30
2018-07-24T08:02:54.341Z,67.00
2018-07-24T08:05:22.961Z,66.20
2018-07-24T08:07:51.712Z,66.10
2018-07-24T08:10:20.349Z,65.80
2018-07-24T08:12:48.821Z,65.40
2018-07-24T08:15:17.338Z,64.10
2018-07-24T08:17:52.362Z,64.30
2018-07-24T08:20:20.954Z,64.10
2018-07-24T08:22:50.240Z,63.30
2018-07-24T08:25:18.830Z,63.40
2018-07-24T08:27:47.413Z,63.30
2018-07-24T08:30:16.079Z,63.10
2018-07-24T08:32:44.626Z,62.10
2018-07-24T08:35:13.209Z,62.40
2018-07-24T08:37:41.745Z,62.10
2018-07-24T08:54:10.481Z,59.70
2018-07-24T08:56:38.784Z,59.00
2018-07-24T08:59:07.372Z,58.20
2018-07-24T09:01:35.941Z,58.10
2018-07-24T09:04:04.469Z,58.10
2018-07-24T09:06:32.998Z,58.30
2018-07-24T09:09:01.552Z,58.10
2018-07-24T09:11:30.108Z,58.20
2018-07-24T09:13:58.619Z,57.40
2018-07-24T09:16:27.050Z,56.80
2018-07-24T09:18:55.588Z,56.10
2018-07-24T09:21:24.185Z,55.90
2018-07-24T09:23:52.663Z,55.70
2018-07-24T09:26:21.169Z,56.00
2018-07-24T09:28:49.929Z,56.20
2018-07-24T09:31:18.479Z,55.30
2018-07-24T09:33:47.185Z,55.50
2018-07-24T09:36:15.624Z,55.50
2018-07-24T09:38:44.175Z,55.30
2018-07-24T09:41:12.594Z,54.90
2018-07-24T09:43:41.105Z,55.20
2018-07-24T09:46:09.560Z,55.80
2018-07-24T09:48:38.721Z,55.60
2018-07-24T09:51:07.202Z,55.60
2018-07-24T09:53:35.798Z,55.50
2018-07-24T09:56:04.461Z,55.70
2018-07-24T09:58:33.063Z,55.60
2018-07-24T10:01:06.908Z,55.20
2018-07-24T10:03:35.678Z,54.90
2018-07-24T10:06:04.180Z,54.50
2018-07-24T10:08:32.737Z,54.30
2018-07-24T10:11:01.267Z,54.00
2018-07-24T10:13:29.673Z,53.80
2018-07-24T10:15:58.224Z,53.00
2018-07-24T10:18:26.735Z,53.20
2018-07-24T10:20:55.153Z,53.00
2018-07-24T10:23:23.677Z,53.40
2018-07-24T10:25:52.222Z,53.10
2018-07-24T10:28:20.687Z,52.70
2018-07-24T10:30:49.229Z,52.40
2018-07-24T10:33:17.816Z,53.00
2018-07-24T10:35:46.345Z,52.60
2018-07-24T10:38:14.864Z,52.20
2018-07-24T10:40:43.653Z,52.50
2018-07-24T10:43:12.367Z,52.30
2018-07-24T10:45:40.884Z,52.30
2018-07-24T10:48:09.468Z,52.70
2018-07-24T10:50:37.915Z,52.60
2018-07-24T10:53:06.678Z,52.50
2018-07-24T10:55:35.185Z,53.00
2018-07-24T10:58:03.716Z,53.00
2018-07-24T11:00:32.288Z,53.00
2018-07-24T11:03:00.799Z,53.90
2018-07-24T11:05:29.228Z,53.20
2018-07-24T11:07:57.765Z,52.40
2018-07-24T11:10:26.256Z,52.90
2018-07-24T11:12:54.789Z,52.60
2018-07-24T11:15:23.445Z,52.80
2018-07-24T11:17:52.397Z,52.30
2018-07-24T11:20:21.021Z,52.40
2018-07-24T11:22:49.745Z,52.50
2018-07-24T11:25:18.224Z,51.50
2018-07-24T11:27:46.652Z,51.40
2018-07-24T11:30:15.083Z,51.00
2018-07-24T11:32:43.593Z,50.90
2018-07-24T11:35:12.377Z,50.50
2018-07-24T11:37:40.920Z,50.10
2018-07-24T11:40:09.395Z,50.60
2018-07-24T11:42:37.984Z,50.20
2018-07-24T11:45:06.861Z,51.00
2018-07-24T11:47:35.503Z,50.00
2018-07-24T11:50:04.014Z,49.50
2018-07-24T11:52:32.498Z,49.20
2018-07-24T11:55:00.964Z,49.20
2018-07-24T11:57:29.561Z,49.10
2018-07-24T11:59:58.078Z,48.20
2018-07-24T12:02:26.737Z,48.10
2018-07-24T12:04:55.391Z,48.20
2018-07-24T12:07:23.849Z,48.20
2018-07-24T12:09:52.370Z,48.00
2018-07-24T12:12:20.852Z,48.10
2018-07-24T12:14:49.502Z,47.80
2018-07-24T12:17:17.949Z,47.40
2018-07-24T12:19:46.521Z,47.20
2018-07-24T12:22:15.034Z,46.80
2018-07-24T12:24:43.625Z,47.30
2018-07-24T12:27:12.563Z,46.60
2018-07-24T12:29:41.198Z,46.50
2018-07-24T12:32:09.777Z,46.80
2018-07-24T12:34:38.204Z,46.40
2018-07-24T12:37:06.673Z,46.90
2018-07-24T12:39:35.157Z,47.20
2018-07-24T12:42:04.041Z,47.00
2018-07-24T12:44:32.448Z,47.00
2018-07-24T12:47:00.957Z,47.10
2018-07-24T12:49:29.493Z,47.10
2018-07-24T12:51:57.946Z,47.10
2018-07-24T12:54:27.477Z,47.10
2018-07-24T12:56:56.117Z,47.00
2018-07-24T12:59:24.802Z,46.60
2018-07-24T13:01:53.589Z,46.90
2018-07-24T13:04:22.250Z,47.70
2018-07-24T13:06:50.818Z,47.40
2018-07-24T13:09:19.429Z,46.90
2018-07-24T13:11:47.896Z,47.10
2018-07-24T13:14:16.346Z,46.60
2018-07-24T13:16:44.991Z,46.30
2018-07-24T13:19:13.601Z,46.00
2018-07-24T13:21:42.270Z,46.10
2018-07-24T13:24:10.951Z,45.80
2018-07-24T13:26:39.497Z,45.70
2018-07-24T13:29:07.941Z,45.80
2018-07-24T13:31:36.639Z,45.30
2018-07-24T13:34:05.335Z,45.30
2018-07-24T13:36:33.995Z,45.20
2018-07-24T13:39:02.644Z,45.00
2018-07-24T13:41:31.261Z,45.00
2018-07-24T13:43:59.919Z,45.40
2018-07-24T13:46:28.495Z,45.90
2018-07-24T13:48:57.032Z,46.00
2018-07-24T13:51:25.510Z,45.70
2018-07-24T13:53:54.182Z,45.70
2018-07-24T13:56:22.677Z,45.50
2018-07-24T13:58:51.253Z,45.60
2018-07-24T14:03:48.071Z,45.40
2018-07-24T14:06:16.556Z,45.10
2018-07-24T14:08:45.214Z,44.90
2018-07-24T14:11:13.845Z,44.70
2018-07-24T14:13:42.413Z,44.10
2018-07-24T14:16:10.997Z,43.90
2018-07-24T14:18:39.497Z,44.10
2018-07-24T14:21:08.293Z,44.40
2018-07-24T14:23:36.772Z,44.40
2018-07-24T14:26:06.236Z,44.50
2018-07-24T14:28:34.721Z,44.60
2018-07-24T14:31:03.264Z,44.60
2018-07-24T14:33:32.220Z,45.30
2018-07-24T14:36:00.939Z,45.70
2018-07-24T14:38:29.546Z,45.70
2018-07-24T14:40:58.547Z,46.30
2018-07-24T14:43:27.113Z,46.20
2018-07-24T14:45:55.839Z,46.60
2018-07-24T14:48:24.519Z,46.40
2018-07-24T14:50:53.124Z,46.70
2018-07-24T14:53:21.749Z,46.30
2018-07-24T14:55:50.258Z,46.60
2018-07-24T14:58:18.717Z,46.40
2018-07-24T15:00:47.251Z,46.50
2018-07-24T15:03:15.707Z,46.50
2018-07-24T15:05:44.313Z,46.30
2018-07-24T15:08:13.732Z,46.20
2018-07-24T15:10:42.201Z,46.30
2018-07-24T15:13:10.729Z,46.40
2018-07-24T15:15:39.261Z,46.60
2018-07-24T15:18:08.446Z,46.70
2018-07-24T15:20:37.158Z,46.80
2018-07-24T15:23:05.864Z,46.50
2018-07-24T15:25:36.494Z,46.70
2018-07-24T15:28:06.871Z,46.80
2018-07-24T15:30:35.396Z,46.90
2018-07-24T15:33:03.913Z,47.20
2018-07-24T15:35:32.496Z,46.80
2018-07-24T15:38:00.963Z,46.50
2018-07-24T15:40:29.406Z,46.40
2018-07-24T15:42:57.902Z,46.50
2018-07-24T15:45:26.853Z,46.40
2018-07-24T15:47:56.993Z,46.40
2018-07-24T15:50:25.509Z,46.40
2018-07-24T15:52:53.937Z,46.20
2018-07-24T15:55:22.505Z,46.00
2018-07-24T15:57:51.258Z,45.50
2018-07-24T16:00:19.852Z,45.70
2018-07-24T16:02:48.309Z,46.10
2018-07-24T16:05:16.873Z,44.90
2018-07-24T16:07:45.329Z,44.20
2018-07-24T16:10:13.995Z,44.30
2018-07-24T16:12:42.473Z,43.90
2018-07-24T16:15:11.138Z,43.70
2018-07-24T16:17:39.653Z,43.20
2018-07-24T16:20:08.180Z,42.50
2018-07-24T16:22:36.757Z,41.70
2018-07-24T16:25:05.744Z,41.10
2018-07-24T16:27:34.236Z,40.70
2018-07-24T16:30:02.809Z,39.70
2018-07-24T16:32:31.349Z,39.20
2018-07-24T16:34:59.915Z,38.60
2018-07-24T16:37:28.561Z,38.40
2018-07-24T16:39:57.117Z,38.20
2018-07-24T16:42:25.785Z,38.00
2018-07-24T16:44:54.634Z,37.60
2018-07-24T16:47:23.236Z,37.10
2018-07-24T16:49:51.977Z,37.40
2018-07-24T16:52:20.993Z,37.40
2018-07-24T16:54:49.943Z,37.30
2018-07-24T16:57:18.842Z,36.70
2018-07-24T16:59:47.459Z,36.30
2018-07-24T17:02:16.123Z,36.00
2018-07-24T17:04:44.773Z,36.00
2018-07-24T17:07:13.565Z,35.30
2018-07-24T17:09:42.321Z,35.30
2018-07-24T17:12:11.329Z,35.00
2018-07-24T17:14:39.873Z,35.00
2018-07-24T17:17:08.978Z,34.90
2018-07-24T17:19:37.476Z,35.30
2018-07-24T17:22:06.567Z,35.80
2018-07-24T17:24:35.872Z,36.70
2018-07-24T17:28:33.897Z,38.40
2018-07-24T17:31:02.367Z,40.30
2018-07-24T17:33:30.972Z,43.00
2018-07-24T17:35:59.652Z,44.60
2018-07-24T17:38:28.182Z,46.10
2018-07-24T17:41:00.182Z,47.30
2018-07-24T17:43:28.736Z,48.30
2018-07-24T17:45:57.386Z,49.10
2018-07-24T17:48:26.084Z,49.80
2018-07-24T17:50:54.469Z,50.70
2018-07-24T17:53:23.000Z,51.20
2018-07-24T17:55:53.030Z,52.00
2018-07-24T17:58:21.493Z,52.60
2018-07-24T18:00:50.684Z,53.10
2018-07-24T18:03:19.429Z,53.60
2018-07-24T18:05:48.000Z,53.90
2018-07-24T18:08:16.582Z,54.00
2018-07-24T18:10:45.201Z,54.50
2018-07-24T18:13:13.847Z,55.10
2018-07-24T18:15:42.366Z,55.50
2018-07-24T18:18:11.433Z,55.90
2018-07-24T18:20:39.856Z,56.40
2018-07-24T18:23:08.360Z,56.80
2018-07-24T18:25:36.934Z,56.70
2018-07-24T18:28:05.476Z,56.60
2018-07-24T18:30:33.958Z,56.30
2018-07-24T18:33:02.465Z,56.40
2018-07-24T18:35:30.909Z,56.80
2018-07-24T18:37:59.461Z,57.10
2018-07-24T18:43:21.097Z,56.90
2018-07-24T18:45:49.764Z,57.10
2018-07-24T18:48:18.185Z,56.90
2018-07-24T18:50:46.695Z,56.80
2018-07-24T18:53:15.386Z,57.10
2018-07-24T18:55:43.789Z,57.50
2018-07-24T18:58:12.307Z,57.80
2018-07-24T19:00:40.770Z,57.80
2018-07-24T19:03:09.283Z,57.80
2018-07-24T19:05:37.754Z,57.80
2018-07-24T19:08:06.467Z,57.80
2018-07-24T19:10:35.086Z,58.60
2018-07-24T19:13:03.777Z,59.70
2018-07-24T19:15:32.384Z,60.70
2018-07-24T19:18:00.943Z,61.60
2018-07-24T19:20:29.336Z,63.00
2018-07-24T19:22:58.007Z,62.40
2018-07-24T19:25:26.644Z,62.80
2018-07-24T19:27:55.216Z,63.60
2018-07-24T19:30:23.702Z,64.30
2018-07-24T19:32:52.156Z,64.80
2018-07-24T19:35:20.715Z,65.20
2018-07-24T19:37:49.323Z,65.80
2018-07-24T19:40:17.892Z,66.00
2018-07-24T19:42:46.563Z,66.50
2018-07-24T19:45:15.081Z,66.90
2018-07-24T19:47:43.735Z,67.20
2018-07-24T19:50:12.362Z,67.60
2018-07-24T19:52:40.911Z,67.80
2018-07-24T19:55:09.433Z,68.00
2018-07-24T19:57:38.221Z,68.00
2018-07-24T20:00:08.175Z,68.40
2018-07-24T20:02:36.741Z,68.50
2018-07-24T20:05:05.292Z,68.90
2018-07-24T20:07:33.937Z,69.50
2018-07-24T20:10:02.457Z,69.50
2018-07-24T20:12:30.997Z,69.30
2018-07-24T20:17:28.074Z,70.20
2018-07-24T20:19:56.770Z,69.90
2018-07-24T20:22:25.230Z,69.80
2018-07-24T20:24:53.714Z,69.80
2018-07-24T20:27:22.148Z,69.80
2018-07-24T20:29:50.621Z,70.30
2018-07-24T20:32:19.069Z,70.50
2018-07-24T20:34:47.629Z,70.30
2018-07-24T20:37:16.234Z,70.10
2018-07-24T20:39:44.763Z,70.00
2018-07-24T20:42:13.309Z,70.30
2018-07-24T20:44:41.797Z,69.60
2018-07-24T20:47:10.359Z,69.80
2018-07-24T20:49:38.797Z,70.00
2018-07-24T20:52:07.433Z,70.40
2018-07-24T20:54:35.929Z,70.60
2018-07-24T20:57:04.491Z,70.80
2018-07-24T20:59:32.901Z,71.30
2018-07-24T21:02:01.410Z,71.40
2018-07-24T21:04:29.895Z,71.80
2018-07-24T21:06:58.365Z,72.20
2018-07-24T21:09:29.344Z,72.50
2018-07-24T21:11:57.809Z,72.70
2018-07-24T21:14:26.399Z,73.20
2018-07-24T21:16:54.935Z,73.50
2018-07-24T21:19:23.413Z,73.60
2018-07-24T21:21:51.867Z,73.90
2018-07-24T21:24:20.800Z,74.40
2018-07-24T21:26:49.470Z,74.80
2018-07-24T21:29:17.937Z,74.80
2018-07-24T21:38:30.754Z,75.10
2018-07-24T21:40:59.194Z,76.00
2018-07-24T21:43:27.724Z,76.40
2018-07-24T21:45:56.487Z,76.60
2018-07-24T21:48:24.940Z,76.60
2018-07-24T21:50:53.428Z,76.60
2018-07-24T21:53:22.057Z,76.70
2018-07-24T21:55:50.642Z,77.30
2018-07-24T22:00:51.623Z,77.80
2018-07-24T22:03:20.019Z,77.80
2018-07-24T22:05:48.469Z,78.10
2018-07-24T22:10:45.167Z,78.50
2018-07-24T22:13:13.742Z,78.50
2018-07-24T22:15:42.256Z,78.80
2018-07-24T22:18:11.723Z,79.40
2018-07-24T22:20:40.173Z,79.50
2018-07-24T22:23:08.697Z,78.90
2018-07-24T22:25:37.153Z,79.40
2018-07-24T22:28:05.674Z,79.80
2018-07-24T22:30:34.239Z,80.30
2018-07-24T22:33:02.812Z,80.80
2018-07-24T22:35:31.253Z,80.90
2018-07-24T22:37:59.809Z,80.90
2018-07-24T22:40:28.345Z,81.00
2018-07-24T22:42:56.757Z,81.20
2018-07-24T22:45:25.268Z,81.40
2018-07-24T22:47:53.692Z,81.60
2018-07-24T22:50:22.128Z,81.80
2018-07-24T22:52:50.586Z,83.20
2018-07-24T22:55:19.113Z,82.70
2018-07-24T22:57:47.555Z,83.30
2018-07-24T23:00:16.048Z,83.90
2018-07-24T23:02:44.532Z,84.30
2018-07-24T23:05:12.960Z,84.50
2018-07-24T23:07:41.530Z,84.20
2018-07-24T23:10:09.945Z,83.90
2018-07-24T23:12:38.369Z,83.80
2018-07-24T23:15:08.194Z,83.60
2018-07-24T23:17:36.658Z,84.00
2018-07-24T23:20:05.249Z,84.50
2018-07-24T23:22:33.694Z,84.60
2018-07-24T23:25:02.110Z,85.00
2018-07-24T23:27:30.656Z,85.10
2018-07-24T23:29:59.225Z,85.20
2018-07-24T23:32:27.757Z,85.20
2018-07-24T23:34:56.161Z,85.30
2018-07-24T23:37:24.869Z,85.50
2018-07-24T23:39:53.289Z,85.90
2018-07-24T23:42:21.735Z,86.20
2018-07-24T23:44:50.455Z,86.30
2018-07-24T23:47:18.881Z,86.00
2018-07-24T23:49:47.342Z,86.00
2018-07-24T23:52:15.865Z,84.50
2018-07-24T23:54:44.345Z,84.40
2018-07-24T23:57:12.752Z,85.60
2018-07-24T23:59:41.369Z,86.10
